createdAt,value
2023-09-12T00:00:00.543Z,97410.0
2023-09-12T00:02:00.870Z,97410.0
2023-09-12T00:04:00.999Z,97410.0
2023-09-12T00:06:02.521Z,97400.0
2023-09-12T00:08:00.825Z,97400.0
2023-09-12T00:10:00.461Z,97400.0
2023-09-12T00:12:00.776Z,97410.0
2023-09-12T00:14:00.468Z,97410.0
2023-09-12T00:16:01.104Z,97420.0
2023-09-12T00:18:00.702Z,97420.0
2023-09-12T00:20:00.902Z,97420.0
2023-09-12T00:22:00.747Z,97420.0
2023-09-12T00:24:00.741Z,97410.0
2023-09-12T00:26:00.862Z,97410.0
2023-09-12T00:28:00.900Z,97410.0
2023-09-12T00:30:00.911Z,97400.0
2023-09-12T00:32:00.768Z,97400.0
2023-09-12T00:34:00.766Z,97390.0
2023-09-12T00:36:00.702Z,97390.0
2023-09-12T00:38:00.900Z,97390.0
2023-09-12T00:40:00.952Z,97390.0
2023-09-12T00:42:00.497Z,97390.0
2023-09-12T00:44:01.092Z,97400.0
2023-09-12T00:46:00.826Z,97400.0
2023-09-12T00:48:03.478Z,97390.0
2023-09-12T00:50:00.969Z,97390.0
2023-09-12T00:52:02.262Z,97400.0
2023-09-12T00:54:01.604Z,97390.0
2023-09-12T00:56:03.840Z,97400.0
2023-09-12T00:58:01.378Z,97390.0
2023-09-12T01:00:01.860Z,97390.0
2023-09-12T01:02:01.358Z,97390.0
2023-09-12T01:04:01.612Z,97390.0
2023-09-12T01:06:02.303Z,97390.0
2023-09-12T01:08:00.898Z,97390.0
2023-09-12T01:10:00.704Z,97390.0
2023-09-12T01:12:00.867Z,97390.0
2023-09-12T01:14:01.082Z,97390.0
2023-09-12T01:16:01.050Z,97390.0
2023-09-12T01:18:00.591Z,97390.0
2023-09-12T01:20:03.770Z,97390.0
2023-09-12T01:22:16.046Z,97390.0
2023-09-12T01:24:18.233Z,97400.0
2023-09-12T01:26:16.856Z,97390.0
2023-09-12T01:28:04.325Z,97390.0
2023-09-12T01:30:03.689Z,97390.0
2023-09-12T01:32:01.394Z,97390.0
2023-09-12T01:34:08.586Z,97390.0
2023-09-12T01:36:01.185Z,97390.0
2023-09-12T01:38:00.682Z,97390.0
2023-09-12T01:40:02.436Z,97390.0
2023-09-12T01:42:01.726Z,97390.0
2023-09-12T01:44:03.004Z,97390.0
2023-09-12T01:46:01.830Z,97390.0
2023-09-12T01:48:01.210Z,97390.0
2023-09-12T01:50:02.013Z,97390.0
2023-09-12T01:52:01.804Z,97390.0
2023-09-12T01:54:01.231Z,97380.0
2023-09-12T01:56:00.949Z,97380.0
2023-09-12T01:58:01.561Z,97380.0
2023-09-12T02:00:00.806Z,97380.0
2023-09-12T02:02:00.608Z,97380.0
2023-09-12T02:04:00.905Z,97370.0
2023-09-12T02:06:01.105Z,97370.0
2023-09-12T02:08:00.948Z,97370.0
2023-09-12T02:10:00.797Z,97370.0
2023-09-12T02:12:00.584Z,97380.0
2023-09-12T02:14:00.454Z,97380.0
2023-09-12T02:16:01.777Z,97380.0
2023-09-12T02:18:01.030Z,97390.0
2023-09-12T02:20:00.610Z,97380.0
2023-09-12T02:22:00.759Z,97380.0
2023-09-12T02:24:00.493Z,97380.0
2023-09-12T02:26:00.927Z,97380.0
2023-09-12T02:28:01.221Z,97380.0
2023-09-12T02:30:00.689Z,97380.0
2023-09-12T02:32:00.729Z,97380.0
2023-09-12T02:34:00.841Z,97380.0
2023-09-12T02:36:00.518Z,97380.0
2023-09-12T02:38:01.036Z,97380.0
2023-09-12T02:40:00.852Z,97380.0
2023-09-12T02:42:01.975Z,97380.0
2023-09-12T02:44:00.536Z,97380.0
2023-09-12T02:46:00.681Z,97370.0
2023-09-12T02:48:01.250Z,97370.0
2023-09-12T02:50:01.027Z,97370.0
2023-09-12T02:52:00.770Z,97370.0
2023-09-12T02:54:00.632Z,97370.0
2023-09-12T02:56:00.790Z,97370.0
2023-09-12T02:58:00.498Z,97370.0
2023-09-12T03:00:00.591Z,97370.0
2023-09-12T03:02:00.898Z,97370.0
2023-09-12T03:04:00.959Z,97370.0
2023-09-12T03:06:01.488Z,97380.0
2023-09-12T03:08:01.004Z,97380.0
2023-09-12T03:10:01.058Z,97380.0
2023-09-12T03:12:01.187Z,97370.0
2023-09-12T03:14:00.637Z,97370.0
2023-09-12T03:16:01.032Z,97370.0
2023-09-12T03:18:00.459Z,97370.0
2023-09-12T03:20:02.377Z,97370.0
2023-09-12T03:22:00.988Z,97360.0
2023-09-12T03:24:00.463Z,97360.0
2023-09-12T03:26:01.958Z,97350.0
2023-09-12T03:28:00.993Z,97350.0
2023-09-12T03:30:00.889Z,97340.0
2023-09-12T03:32:01.317Z,97340.0
2023-09-12T03:34:01.273Z,97340.0
2023-09-12T03:36:00.457Z,97340.0
2023-09-12T03:38:01.476Z,97340.0
2023-09-12T03:40:00.884Z,97340.0
2023-09-12T03:42:00.764Z,97340.0
2023-09-12T03:44:00.729Z,97340.0
2023-09-12T03:46:01.075Z,97340.0
2023-09-12T03:48:00.853Z,97350.0
2023-09-12T03:50:00.776Z,97350.0
2023-09-12T03:52:00.938Z,97360.0
2023-09-12T03:54:00.454Z,97350.0
2023-09-12T03:56:00.439Z,97350.0
2023-09-12T03:58:00.844Z,97350.0
2023-09-12T04:00:03.349Z,97350.0
2023-09-12T04:02:02.178Z,97340.0
2023-09-12T04:04:03.778Z,97340.0
2023-09-12T04:06:00.880Z,97350.0
2023-09-12T04:08:00.624Z,97350.0
2023-09-12T04:10:00.520Z,97350.0
2023-09-12T04:12:01.064Z,97350.0
2023-09-12T04:14:00.830Z,97350.0
2023-09-12T04:16:01.142Z,97350.0
2023-09-12T04:18:00.492Z,97350.0
2023-09-12T04:20:00.822Z,97340.0
2023-09-12T04:22:00.432Z,97340.0
2023-09-12T04:24:00.455Z,97350.0
2023-09-12T04:26:00.792Z,97350.0
2023-09-12T04:28:01.088Z,97350.0
2023-09-12T04:30:01.410Z,97360.0
2023-09-12T04:32:01.910Z,97350.0
2023-09-12T04:34:00.488Z,97360.0
2023-09-12T04:36:01.108Z,97360.0
2023-09-12T04:38:00.876Z,97360.0
2023-09-12T04:40:01.016Z,97360.0
2023-09-12T04:42:00.697Z,97370.0
2023-09-12T04:44:00.476Z,97370.0
2023-09-12T04:46:00.548Z,97360.0
2023-09-12T04:48:00.687Z,97370.0
2023-09-12T04:50:00.612Z,97370.0
2023-09-12T04:52:01.349Z,97370.0
2023-09-12T04:54:00.460Z,97370.0
2023-09-12T04:56:00.618Z,97370.0
2023-09-12T04:58:00.573Z,97370.0
2023-09-12T05:00:00.728Z,97360.0
2023-09-12T05:02:00.940Z,97360.0
2023-09-12T05:04:01.238Z,97360.0
2023-09-12T05:06:00.558Z,97360.0
2023-09-12T05:08:00.809Z,97360.0
2023-09-12T05:10:00.918Z,97360.0
2023-09-12T05:12:00.468Z,97350.0
2023-09-12T05:14:00.768Z,97350.0
2023-09-12T05:16:01.209Z,97340.0
2023-09-12T05:18:00.517Z,97340.0
2023-09-12T05:20:00.685Z,97350.0
2023-09-12T05:22:01.018Z,97350.0
2023-09-12T05:24:00.458Z,97350.0
2023-09-12T05:26:00.765Z,97350.0
2023-09-12T05:28:00.804Z,97350.0
2023-09-12T05:30:00.471Z,97350.0
2023-09-12T05:32:01.052Z,97360.0
2023-09-12T05:34:00.521Z,97360.0
2023-09-12T05:36:00.747Z,97360.0
2023-09-12T05:38:01.380Z,97360.0
2023-09-12T05:40:01.104Z,97370.0
2023-09-12T05:42:01.037Z,97370.0
2023-09-12T05:44:00.459Z,97370.0
2023-09-12T05:46:01.398Z,97360.0
2023-09-12T05:48:01.083Z,97370.0
2023-09-12T05:50:01.039Z,97370.0
2023-09-12T05:52:00.744Z,97370.0
2023-09-12T05:54:00.786Z,97380.0
2023-09-12T05:56:00.448Z,97380.0
2023-09-12T05:58:00.684Z,97380.0
2023-09-12T06:00:01.065Z,97370.0
2023-09-12T06:02:00.933Z,97370.0
2023-09-12T06:04:01.307Z,97370.0
2023-09-12T06:06:00.685Z,97370.0
2023-09-12T06:08:00.691Z,97370.0
2023-09-12T06:10:01.084Z,97370.0
2023-09-12T06:12:00.465Z,97370.0
2023-09-12T06:14:00.608Z,97380.0
2023-09-12T06:16:01.222Z,97380.0
2023-09-12T06:18:00.743Z,97380.0
2023-09-12T06:20:01.081Z,97390.0
2023-09-12T06:22:00.770Z,97390.0
2023-09-12T06:24:10.639Z,97390.0
2023-09-12T06:26:00.665Z,97390.0
2023-09-12T06:28:01.038Z,97390.0
2023-09-12T06:30:01.135Z,97390.0
2023-09-12T06:32:00.821Z,97390.0
2023-09-12T06:34:01.646Z,97390.0
2023-09-12T06:36:01.113Z,97390.0
2023-09-12T06:38:00.882Z,97380.0
2023-09-12T06:40:00.750Z,97380.0
2023-09-12T06:42:01.158Z,97380.0
2023-09-12T06:44:00.603Z,97380.0
2023-09-12T06:46:00.672Z,97370.0
2023-09-12T06:48:01.504Z,97380.0
2023-09-12T06:50:00.917Z,97370.0
2023-09-12T06:52:01.073Z,97370.0
2023-09-12T06:54:00.518Z,97380.0
2023-09-12T06:56:00.822Z,97380.0
2023-09-12T06:58:00.488Z,97390.0
2023-09-12T07:00:00.692Z,97380.0
2023-09-12T07:02:00.908Z,97380.0
2023-09-12T07:04:01.173Z,97380.0
2023-09-12T07:06:01.706Z,97390.0
2023-09-12T07:08:00.696Z,97380.0
2023-09-12T07:10:15.931Z,97380.0
2023-09-12T07:12:00.944Z,97390.0
2023-09-12T07:14:00.749Z,97390.0
2023-09-12T07:16:01.041Z,97390.0
2023-09-12T07:18:00.870Z,97380.0
2023-09-12T07:20:00.767Z,97380.0
2023-09-12T07:22:00.836Z,97380.0
2023-09-12T07:24:00.460Z,97380.0
2023-09-12T07:26:00.566Z,97380.0
2023-09-12T07:28:00.961Z,97380.0
2023-09-12T07:30:00.954Z,97380.0
2023-09-12T07:32:01.432Z,97380.0
2023-09-12T07:34:00.486Z,97380.0
2023-09-12T07:36:00.593Z,97390.0
2023-09-12T07:38:00.480Z,97390.0
2023-09-12T07:40:01.157Z,97390.0
2023-09-12T07:42:00.613Z,97390.0
2023-09-12T07:44:00.714Z,97390.0
2023-09-12T07:46:01.166Z,97400.0
2023-09-12T07:48:00.939Z,97400.0
2023-09-12T07:50:01.033Z,97400.0
2023-09-12T07:52:00.969Z,97390.0
2023-09-12T07:54:00.721Z,97390.0
2023-09-12T07:56:00.469Z,97390.0
2023-09-12T07:58:00.460Z,97390.0
2023-09-12T08:00:01.076Z,97390.0
2023-09-12T08:02:01.304Z,97390.0
2023-09-12T08:04:01.104Z,97390.0
2023-09-12T08:06:00.754Z,97390.0
2023-09-12T08:08:00.649Z,97400.0
2023-09-12T08:10:00.653Z,97400.0
2023-09-12T08:12:00.608Z,97400.0
2023-09-12T08:14:00.939Z,97400.0
2023-09-12T08:16:01.119Z,97400.0
2023-09-12T08:18:00.511Z,97400.0
2023-09-12T08:20:00.872Z,97400.0
2023-09-12T08:22:00.750Z,97390.0
2023-09-12T08:24:01.055Z,97400.0
2023-09-12T08:26:00.452Z,97400.0
2023-09-12T08:28:01.914Z,97400.0
2023-09-12T08:30:00.457Z,97400.0
2023-09-12T08:32:01.336Z,97400.0
2023-09-12T08:34:01.539Z,97400.0
2023-09-12T08:36:00.789Z,97400.0
2023-09-12T08:38:00.464Z,97400.0
2023-09-12T08:40:01.452Z,97400.0
2023-09-12T08:42:00.457Z,97400.0
2023-09-12T08:44:01.375Z,97400.0
2023-09-12T08:46:01.309Z,97400.0
2023-09-12T08:48:01.459Z,97400.0
2023-09-12T08:50:02.937Z,97400.0
2023-09-12T08:52:01.288Z,97400.0
2023-09-12T08:54:00.824Z,97390.0
2023-09-12T08:56:00.488Z,97390.0
2023-09-12T08:58:02.874Z,97390.0
2023-09-12T09:00:01.230Z,97390.0
2023-09-12T09:02:02.925Z,97390.0
2023-09-12T09:04:03.248Z,97390.0
2023-09-12T09:06:02.364Z,97390.0
2023-09-12T09:08:01.711Z,97390.0
2023-09-12T09:10:02.724Z,97390.0
2023-09-12T09:12:00.605Z,97380.0
2023-09-12T09:14:01.039Z,97380.0
2023-09-12T09:16:11.826Z,97380.0
2023-09-12T09:18:02.603Z,97380.0
2023-09-12T09:20:00.527Z,97390.0
2023-09-12T09:22:05.764Z,97390.0
2023-09-12T09:24:02.462Z,97380.0
2023-09-12T09:26:00.816Z,97390.0
2023-09-12T09:28:03.204Z,97390.0
2023-09-12T09:30:00.996Z,97380.0
2023-09-12T09:32:01.193Z,97380.0
2023-09-12T09:34:01.165Z,97380.0
2023-09-12T09:36:03.357Z,97380.0
2023-09-12T09:38:00.886Z,97380.0
2023-09-12T09:40:00.956Z,97370.0
2023-09-12T09:42:01.048Z,97370.0
2023-09-12T09:44:00.980Z,97370.0
2023-09-12T09:46:01.020Z,97370.0
2023-09-12T09:48:05.184Z,97370.0
2023-09-12T09:50:00.579Z,97370.0
2023-09-12T09:52:03.199Z,97370.0
2023-09-12T09:54:00.467Z,97370.0
2023-09-12T09:56:09.218Z,97370.0
2023-09-12T09:58:00.456Z,97370.0
2023-09-12T10:00:00.463Z,97370.0
2023-09-12T10:02:01.324Z,97370.0
2023-09-12T10:04:01.743Z,97370.0
2023-09-12T10:06:05.004Z,97370.0
2023-09-12T10:08:04.078Z,97360.0
2023-09-12T10:10:02.965Z,97360.0
2023-09-12T10:12:00.796Z,97360.0
2023-09-12T10:14:03.606Z,97360.0
2023-09-12T10:16:01.684Z,97370.0
2023-09-12T10:20:03.849Z,97370.0
2023-09-12T10:22:08.797Z,97360.0
2023-09-12T10:24:03.559Z,97360.0
2023-09-12T10:26:01.530Z,97360.0
2023-09-12T10:28:01.534Z,97360.0
2023-09-12T10:30:01.904Z,97360.0
2023-09-12T10:32:00.870Z,97360.0
2023-09-12T10:34:02.724Z,97350.0
2023-09-12T10:36:03.022Z,97350.0
2023-09-12T10:38:02.774Z,97350.0
2023-09-12T10:40:02.305Z,97350.0
2023-09-12T10:42:04.574Z,97350.0
2023-09-12T10:44:01.333Z,97350.0
2023-09-12T10:46:01.679Z,97350.0
2023-09-12T10:48:00.684Z,97350.0
2023-09-12T10:50:01.756Z,97350.0
2023-09-12T10:52:01.239Z,97350.0
2023-09-12T10:54:00.695Z,97350.0
2023-09-12T10:56:15.237Z,97350.0
2023-09-12T10:58:01.728Z,97350.0
2023-09-12T11:00:11.721Z,97350.0
2023-09-12T11:02:21.909Z,97350.0
2023-09-12T11:04:21.925Z,97340.0
2023-09-12T11:06:00.814Z,97340.0
2023-09-12T11:08:02.058Z,97340.0
2023-09-12T11:10:19.190Z,97330.0
2023-09-12T11:12:03.046Z,97330.0
2023-09-12T11:14:05.375Z,97320.0
2023-09-12T11:16:11.531Z,97320.0
2023-09-12T11:18:02.978Z,97330.0
2023-09-12T11:20:03.409Z,97330.0
2023-09-12T11:22:00.633Z,97330.0
2023-09-12T11:24:00.560Z,97330.0
2023-09-12T11:26:04.624Z,97330.0
2023-09-12T11:28:04.289Z,97330.0
2023-09-12T11:30:04.381Z,97330.0
2023-09-12T11:32:00.660Z,97330.0
2023-09-12T11:34:01.023Z,97340.0
2023-09-12T11:36:01.978Z,97340.0
2023-09-12T11:38:01.185Z,97340.0
2023-09-12T11:40:00.676Z,97340.0
2023-09-12T11:42:02.050Z,97340.0
2023-09-12T11:44:07.312Z,97340.0
2023-09-12T11:46:03.739Z,97340.0
2023-09-12T11:48:03.084Z,97340.0
2023-09-12T11:50:01.210Z,97340.0
2023-09-12T11:52:00.489Z,97340.0
2023-09-12T11:54:00.581Z,97340.0
2023-09-12T11:56:00.931Z,97340.0
2023-09-12T11:58:01.184Z,97340.0
2023-09-12T12:00:03.136Z,97340.0
2023-09-12T12:02:01.168Z,97340.0
2023-09-12T12:04:01.214Z,97340.0
2023-09-12T12:06:00.700Z,97340.0
2023-09-12T12:08:21.658Z,97340.0
2023-09-12T12:10:00.688Z,97340.0
2023-09-12T12:12:08.876Z,97340.0
2023-09-12T12:14:09.192Z,97330.0
2023-09-12T12:16:14.675Z,97330.0
2023-09-12T12:18:00.540Z,97330.0
2023-09-12T12:20:00.529Z,97330.0
2023-09-12T12:22:00.616Z,97330.0
2023-09-12T12:24:00.891Z,97330.0
2023-09-12T12:26:03.275Z,97330.0
2023-09-12T12:28:01.620Z,97330.0
2023-09-12T12:30:00.596Z,97330.0
2023-09-12T12:32:01.049Z,97330.0
2023-09-12T12:34:46.705Z,97330.0
2023-09-12T12:36:01.081Z,97320.0
2023-09-12T12:38:06.150Z,97320.0
2023-09-12T12:40:01.629Z,97320.0
2023-09-12T12:42:00.645Z,97310.0
2023-09-12T12:44:03.880Z,97320.0
2023-09-12T12:46:00.640Z,97320.0
2023-09-12T12:48:01.320Z,97310.0
2023-09-12T12:50:01.038Z,97310.0
2023-09-12T12:52:03.079Z,97310.0
2023-09-12T12:54:04.919Z,97310.0
2023-09-12T12:56:00.509Z,97310.0
2023-09-12T12:58:03.830Z,97310.0
2023-09-12T13:00:01.276Z,97310.0
2023-09-12T13:02:01.012Z,97310.0
2023-09-12T13:04:01.090Z,97310.0
2023-09-12T13:06:00.878Z,97310.0
2023-09-12T13:08:00.455Z,97310.0
2023-09-12T13:10:00.678Z,97310.0
2023-09-12T13:12:00.529Z,97320.0
2023-09-12T13:14:01.373Z,97310.0
2023-09-12T13:16:00.694Z,97310.0
2023-09-12T13:18:01.081Z,97310.0
2023-09-12T13:20:00.462Z,97300.0
2023-09-12T13:22:00.747Z,97300.0
2023-09-12T13:24:02.492Z,97300.0
2023-09-12T13:26:00.860Z,97300.0
2023-09-12T13:28:00.710Z,97300.0
2023-09-12T13:30:01.128Z,97300.0
2023-09-12T13:32:00.633Z,97300.0
2023-09-12T13:34:00.525Z,97290.0
2023-09-12T13:36:00.677Z,97290.0
2023-09-12T13:38:00.886Z,97290.0
2023-09-12T13:40:00.678Z,97290.0
2023-09-12T13:42:00.784Z,97290.0
2023-09-12T13:44:00.636Z,97290.0
2023-09-12T13:46:00.587Z,97300.0
2023-09-12T13:48:01.471Z,97290.0
2023-09-12T13:50:00.998Z,97290.0
2023-09-12T13:52:00.646Z,97300.0
2023-09-12T13:54:00.992Z,97290.0
2023-09-12T13:56:01.855Z,97300.0
2023-09-12T13:58:02.187Z,97290.0
2023-09-12T14:00:00.588Z,97300.0
2023-09-12T14:02:00.916Z,97300.0
2023-09-12T14:04:01.008Z,97300.0
2023-09-12T14:06:01.068Z,97290.0
2023-09-12T14:08:00.540Z,97290.0
2023-09-12T14:10:00.926Z,97290.0
2023-09-12T14:12:00.785Z,97290.0
2023-09-12T14:14:14.658Z,97290.0
2023-09-12T14:16:00.554Z,97280.0
2023-09-12T14:18:00.873Z,97290.0
2023-09-12T14:20:00.868Z,97280.0
2023-09-12T14:22:01.926Z,97280.0
2023-09-12T14:24:01.636Z,97290.0
2023-09-12T14:26:02.800Z,97280.0
2023-09-12T14:28:00.651Z,97290.0
2023-09-12T14:30:00.576Z,97280.0
2023-09-12T14:32:01.096Z,97280.0
2023-09-12T14:34:01.029Z,97270.0
2023-09-12T14:36:00.690Z,97280.0
2023-09-12T14:38:00.638Z,97280.0
2023-09-12T14:40:05.937Z,97270.0
2023-09-12T14:42:00.711Z,97280.0
2023-09-12T14:44:00.841Z,97270.0
2023-09-12T14:46:00.734Z,97270.0
2023-09-12T14:48:00.662Z,97270.0
2023-09-12T14:50:01.192Z,97260.0
2023-09-12T14:52:01.539Z,97260.0
2023-09-12T14:54:00.803Z,97260.0
2023-09-12T14:56:00.644Z,97260.0
2023-09-12T14:58:00.482Z,97260.0
2023-09-12T15:00:00.709Z,97260.0
2023-09-12T15:02:00.939Z,97260.0
2023-09-12T15:04:01.225Z,97250.0
2023-09-12T15:06:00.722Z,97250.0
2023-09-12T15:08:01.231Z,97250.0
2023-09-12T15:10:00.781Z,97250.0
2023-09-12T15:12:00.631Z,97250.0
2023-09-12T15:14:01.074Z,97250.0
2023-09-12T15:16:00.799Z,97250.0
2023-09-12T15:18:00.494Z,97250.0
2023-09-12T15:20:00.626Z,97250.0
2023-09-12T15:22:00.803Z,97240.0
2023-09-12T15:24:00.863Z,97250.0
2023-09-12T15:26:02.634Z,97240.0
2023-09-12T15:28:00.725Z,97240.0
2023-09-12T15:30:00.978Z,97240.0
2023-09-12T15:32:00.809Z,97240.0
2023-09-12T15:34:00.640Z,97240.0
2023-09-12T15:36:00.649Z,97240.0
2023-09-12T15:38:00.872Z,97240.0
2023-09-12T15:40:00.959Z,97240.0
2023-09-12T15:42:00.640Z,97240.0
2023-09-12T15:46:00.775Z,97230.0
2023-09-12T15:48:00.593Z,97240.0
2023-09-12T15:50:01.294Z,97230.0
2023-09-12T15:52:00.592Z,97230.0
2023-09-12T15:54:00.855Z,97230.0
2023-09-12T15:56:00.493Z,97230.0
2023-09-12T15:58:00.814Z,97230.0
2023-09-12T16:00:01.087Z,97230.0
2023-09-12T16:02:01.155Z,97230.0
2023-09-12T16:04:00.872Z,97230.0
2023-09-12T16:06:00.595Z,97230.0
2023-09-12T16:08:00.662Z,97230.0
2023-09-12T16:10:00.761Z,97230.0
2023-09-12T16:12:00.596Z,97230.0
2023-09-12T16:14:00.918Z,97220.0
2023-09-12T16:16:01.120Z,97220.0
2023-09-12T16:18:01.073Z,97230.0
2023-09-12T16:20:00.678Z,97220.0
2023-09-12T16:22:01.125Z,97230.0
2023-09-12T16:24:00.879Z,97230.0
2023-09-12T16:26:01.144Z,97230.0
2023-09-12T16:28:00.946Z,97240.0
2023-09-12T16:30:00.836Z,97240.0
2023-09-12T16:32:00.998Z,97240.0
2023-09-12T16:34:00.738Z,97240.0
2023-09-12T16:36:01.172Z,97240.0
2023-09-12T16:38:00.785Z,97250.0
2023-09-12T16:40:00.894Z,97240.0
2023-09-12T16:42:00.680Z,97240.0
2023-09-12T16:44:00.529Z,97240.0
2023-09-12T16:46:00.841Z,97230.0
2023-09-12T16:48:00.827Z,97230.0
2023-09-12T16:50:02.135Z,97240.0
2023-09-12T16:52:01.977Z,97230.0
2023-09-12T16:54:00.679Z,97230.0
2023-09-12T16:56:00.821Z,97230.0
2023-09-12T16:58:00.473Z,97230.0
2023-09-12T17:00:00.511Z,97230.0
2023-09-12T17:02:01.161Z,97230.0
2023-09-12T17:04:03.235Z,97230.0
2023-09-12T17:06:00.604Z,97230.0
2023-09-12T17:08:00.956Z,97230.0
2023-09-12T17:10:00.708Z,97240.0
2023-09-12T17:12:00.687Z,97240.0
2023-09-12T17:14:01.128Z,97240.0
2023-09-12T17:16:00.705Z,97240.0
2023-09-12T17:18:00.662Z,97250.0
2023-09-12T17:20:00.514Z,97250.0
2023-09-12T17:22:01.351Z,97250.0
2023-09-12T17:24:00.774Z,97250.0
2023-09-12T17:26:00.673Z,97250.0
2023-09-12T17:28:01.086Z,97250.0
2023-09-12T17:30:00.575Z,97260.0
2023-09-12T17:32:08.212Z,97260.0
2023-09-12T17:34:00.660Z,97260.0
2023-09-12T17:36:00.906Z,97240.0
2023-09-12T17:38:00.985Z,97230.0
2023-09-12T17:40:00.725Z,97230.0
2023-09-12T17:42:00.796Z,97220.0
2023-09-12T17:44:01.109Z,97220.0
2023-09-12T17:46:10.193Z,97220.0
2023-09-12T17:48:00.737Z,97210.0
2023-09-12T17:50:01.043Z,97210.0
2023-09-12T17:52:00.658Z,97210.0
2023-09-12T17:54:00.594Z,97210.0
2023-09-12T17:56:00.788Z,97220.0
2023-09-12T17:58:00.531Z,97220.0
2023-09-12T18:00:00.977Z,97230.0
2023-09-12T18:02:01.354Z,97230.0
2023-09-12T18:04:00.629Z,97240.0
2023-09-12T18:06:00.752Z,97240.0
2023-09-12T18:08:00.651Z,97250.0
2023-09-12T18:10:01.290Z,97240.0
2023-09-12T18:12:00.522Z,97250.0
2023-09-12T18:14:01.746Z,97250.0
2023-09-12T18:16:01.122Z,97260.0
2023-09-12T18:18:00.615Z,97250.0
2023-09-12T18:20:00.600Z,97250.0
2023-09-12T18:22:00.802Z,97270.0
2023-09-12T18:24:01.186Z,97270.0
2023-09-12T18:26:01.029Z,97280.0
2023-09-12T18:28:00.639Z,97280.0
2023-09-12T18:30:00.690Z,97280.0
2023-09-12T18:32:00.538Z,97270.0
2023-09-12T18:34:00.659Z,97260.0
2023-09-12T18:36:00.848Z,97250.0
2023-09-12T18:38:00.805Z,97250.0
2023-09-12T18:40:00.666Z,97240.0
2023-09-12T18:42:00.888Z,97230.0
2023-09-12T18:44:00.668Z,97220.0
2023-09-12T18:46:01.873Z,97220.0
2023-09-12T18:48:00.543Z,97230.0
2023-09-12T18:50:01.517Z,97230.0
2023-09-12T18:52:00.508Z,97220.0
2023-09-12T18:54:00.863Z,97220.0
2023-09-12T18:56:01.133Z,97220.0
2023-09-12T18:58:00.586Z,97230.0
2023-09-12T19:00:00.534Z,97220.0
2023-09-12T19:02:01.055Z,97220.0
2023-09-12T19:04:21.923Z,97210.0
2023-09-12T19:06:00.893Z,97220.0
2023-09-12T19:08:00.696Z,97230.0
2023-09-12T19:10:01.822Z,97230.0
2023-09-12T19:12:00.807Z,97220.0
2023-09-12T19:14:01.128Z,97190.0
2023-09-12T19:16:00.972Z,97190.0
2023-09-12T19:18:00.790Z,97190.0
2023-09-12T19:20:01.580Z,97200.0
2023-09-12T19:22:00.898Z,97200.0
2023-09-12T19:24:00.585Z,97200.0
2023-09-12T19:26:00.996Z,97200.0
2023-09-12T19:28:00.802Z,97200.0
2023-09-12T19:30:01.195Z,97240.0
2023-09-12T19:32:00.923Z,97310.0
2023-09-12T19:34:00.523Z,97350.0
2023-09-12T19:36:00.712Z,97370.0
2023-09-12T19:38:00.961Z,97390.0
2023-09-12T19:40:01.428Z,97420.0
2023-09-12T19:42:00.537Z,97440.0
2023-09-12T19:44:00.581Z,97490.0
2023-09-12T19:46:01.725Z,97500.0
2023-09-12T19:48:02.115Z,97460.0
2023-09-12T19:50:01.288Z,97440.0
2023-09-12T19:52:00.462Z,97440.0
2023-09-12T19:54:00.494Z,97460.0
2023-09-12T19:56:01.424Z,97460.0
2023-09-12T19:58:00.716Z,97440.0
2023-09-12T20:00:00.493Z,97440.0
2023-09-12T20:02:01.764Z,97420.0
2023-09-12T20:04:00.618Z,97430.0
2023-09-12T20:06:01.140Z,97430.0
2023-09-12T20:08:00.464Z,97430.0
2023-09-12T20:10:00.704Z,97420.0
2023-09-12T20:12:00.487Z,97410.0
2023-09-12T20:14:00.746Z,97410.0
2023-09-12T20:16:01.078Z,97410.0
2023-09-12T20:18:05.096Z,97410.0
2023-09-12T20:20:00.487Z,97420.0
2023-09-12T20:22:00.858Z,97420.0
2023-09-12T20:24:03.338Z,97420.0
2023-09-12T20:26:01.696Z,97410.0
2023-09-12T20:28:01.208Z,97410.0
2023-09-12T20:30:00.736Z,97410.0
2023-09-12T20:32:01.163Z,97390.0
2023-09-12T20:34:00.740Z,97380.0
2023-09-12T20:36:00.607Z,97370.0
2023-09-12T20:38:01.368Z,97370.0
2023-09-12T20:40:01.197Z,97390.0
2023-09-12T20:42:00.810Z,97380.0
2023-09-12T20:44:00.841Z,97380.0
2023-09-12T20:46:00.885Z,97380.0
2023-09-12T20:48:00.764Z,97380.0
2023-09-12T20:50:00.958Z,97390.0
2023-09-12T20:52:00.977Z,97380.0
2023-09-12T20:54:00.862Z,97370.0
2023-09-12T20:56:01.019Z,97370.0
2023-09-12T20:58:00.726Z,97370.0
2023-09-12T21:00:02.147Z,97370.0
2023-09-12T21:02:01.242Z,97370.0
2023-09-12T21:04:00.765Z,97360.0
2023-09-12T21:06:00.503Z,97350.0
2023-09-12T21:08:00.938Z,97350.0
2023-09-12T21:10:00.848Z,97340.0
2023-09-12T21:12:01.083Z,97350.0
2023-09-12T21:14:01.183Z,97340.0
2023-09-12T21:16:00.584Z,97350.0
2023-09-12T21:18:00.878Z,97340.0
2023-09-12T21:20:00.760Z,97340.0
2023-09-12T21:22:02.379Z,97340.0
2023-09-12T21:24:00.653Z,97340.0
2023-09-12T21:26:01.276Z,97350.0
2023-09-12T21:28:00.614Z,97340.0
2023-09-12T21:30:02.292Z,97340.0
2023-09-12T21:32:00.531Z,97340.0
2023-09-12T21:34:00.649Z,97350.0
2023-09-12T21:36:00.471Z,97350.0
2023-09-12T21:38:00.866Z,97350.0
2023-09-12T21:40:00.722Z,97350.0
2023-09-12T21:42:00.489Z,97350.0
2023-09-12T21:44:00.504Z,97350.0
2023-09-12T21:46:01.252Z,97340.0
2023-09-12T21:48:01.102Z,97340.0
2023-09-12T21:50:00.909Z,97350.0
2023-09-12T21:52:00.908Z,97350.0
2023-09-12T21:54:00.472Z,97350.0
2023-09-12T21:56:00.807Z,97350.0
2023-09-12T21:58:01.591Z,97350.0
2023-09-12T22:00:01.543Z,97350.0
2023-09-12T22:02:00.985Z,97360.0
2023-09-12T22:04:00.880Z,97360.0
2023-09-12T22:06:03.178Z,97370.0
2023-09-12T22:08:00.984Z,97370.0
2023-09-12T22:10:00.872Z,97370.0
2023-09-12T22:12:00.712Z,97380.0
2023-09-12T22:14:00.905Z,97380.0
2023-09-12T22:16:01.035Z,97380.0
2023-09-12T22:18:00.697Z,97370.0
2023-09-12T22:20:01.110Z,97370.0
2023-09-12T22:22:00.749Z,97370.0
2023-09-12T22:24:00.830Z,97370.0
2023-09-12T22:26:07.392Z,97370.0
2023-09-12T22:28:00.608Z,97360.0
2023-09-12T22:30:00.669Z,97360.0
2023-09-12T22:32:00.607Z,97360.0
2023-09-12T22:34:00.909Z,97360.0
2023-09-12T22:36:12.525Z,97360.0
2023-09-12T22:38:00.715Z,97360.0
2023-09-12T22:40:01.296Z,97360.0
2023-09-12T22:42:00.462Z,97370.0
2023-09-12T22:44:00.463Z,97370.0
2023-09-12T22:46:00.962Z,97370.0
2023-09-12T22:48:00.914Z,97370.0
2023-09-12T22:50:04.022Z,97370.0
2023-09-12T22:52:00.868Z,97380.0
2023-09-12T22:54:00.488Z,97380.0
2023-09-12T22:56:00.629Z,97380.0
2023-09-12T22:58:00.813Z,97380.0
2023-09-12T23:00:00.733Z,97380.0
2023-09-12T23:02:01.254Z,97380.0
2023-09-12T23:04:01.015Z,97380.0
2023-09-12T23:06:02.276Z,97390.0
2023-09-12T23:08:00.628Z,97390.0
2023-09-12T23:10:00.580Z,97390.0
2023-09-12T23:12:01.768Z,97390.0
2023-09-12T23:14:01.189Z,97390.0
2023-09-12T23:16:01.224Z,97390.0
2023-09-12T23:18:00.534Z,97390.0
2023-09-12T23:20:00.613Z,97390.0
2023-09-12T23:22:00.948Z,97400.0
2023-09-12T23:24:01.040Z,97400.0
2023-09-12T23:26:01.302Z,97400.0
2023-09-12T23:28:00.705Z,97390.0
2023-09-12T23:30:00.847Z,97400.0
2023-09-12T23:32:01.095Z,97390.0
2023-09-12T23:34:00.479Z,97400.0
2023-09-12T23:36:00.479Z,97400.0
2023-09-12T23:38:00.996Z,97410.0
2023-09-12T23:40:00.615Z,97410.0
2023-09-12T23:42:00.697Z,97410.0
2023-09-12T23:44:01.130Z,97410.0
2023-09-12T23:46:01.006Z,97410.0
2023-09-12T23:48:00.911Z,97410.0
2023-09-12T23:50:01.080Z,97420.0
2023-09-12T23:52:00.713Z,97420.0
2023-09-12T23:54:00.478Z,97420.0
2023-09-12T23:56:01.195Z,97420.0
2023-09-12T23:58:01.024Z,97420.0
